DLH66M LOWS-EDDF
Flight info
| Callsign | DLH66M |
|---|---|
| Flight time | 0h 42m |
| Altitude | 30000 |
| Route | INROM DCT SIMBA Y700 NENUM T161 DEBHI DEBHI1B |
| Aircraft | A319/M-SDE2E3FGIJ1LORWXYZ/HB1 |
Departure
| Time | 2026-05-04 17:56 |
|---|---|
| Airport | Salzburg Airport (LOWS) |
Arrival
| Time | 2026-05-04 18:38 |
|---|---|
| Airport | Frankfurt Main Airport (EDDF) |
| Time | Latitude | Longitude | Altitude | Speed | Heading |
|---|---|---|---|---|---|
| 2026-05-04 17:31 | 47.79031 | 12.99988 | 1420 ft | 0 kts | 281° |
| 2026-05-04 17:47 | 47.79032 | 12.99986 | 1420 ft | 0 kts | 287° |
| 2026-05-04 17:48 | 47.79034 | 12.99982 | 1420 ft | 0 kts | 300° |
| 2026-05-04 17:48 | 47.79036 | 12.99982 | 1420 ft | 0 kts | 316° |
| 2026-05-04 17:48 | 47.79043 | 12.99993 | 1420 ft | 3 kts | 50° |
| 2026-05-04 17:48 | 47.79038 | 13.00023 | 1420 ft | 4 kts | 110° |
| 2026-05-04 17:49 | 47.79031 | 13.00072 | 1420 ft | 5 kts | 109° |
| 2026-05-04 17:49 | 47.79001 | 13.00116 | 1420 ft | 7 kts | 151° |
| 2026-05-04 17:49 | 47.78962 | 13.00174 | 1420 ft | 9 kts | 116° |
| 2026-05-04 17:49 | 47.78956 | 13.00275 | 1420 ft | 10 kts | 92° |
| 2026-05-04 17:50 | 47.78935 | 13.00376 | 1421 ft | 11 kts | 138° |
| 2026-05-04 17:50 | 47.78864 | 13.00422 | 1420 ft | 12 kts | 157° |
| 2026-05-04 17:50 | 47.78768 | 13.00484 | 1421 ft | 17 kts | 156° |
| 2026-05-04 17:50 | 47.78658 | 13.00553 | 1420 ft | 17 kts | 156° |
| 2026-05-04 17:51 | 47.78545 | 13.00626 | 1420 ft | 18 kts | 156° |
| 2026-05-04 17:51 | 47.78426 | 13.00701 | 1420 ft | 19 kts | 157° |
| 2026-05-04 17:51 | 47.78321 | 13.00768 | 1420 ft | 13 kts | 157° |
| 2026-05-04 17:51 | 47.78285 | 13.00790 | 1422 ft | 4 kts | 156° |
| 2026-05-04 17:52 | 47.78279 | 13.00795 | 1421 ft | 1 kts | 155° |
| 2026-05-04 17:52 | 47.78269 | 13.00802 | 1420 ft | 2 kts | 154° |
| 2026-05-04 17:52 | 47.78251 | 13.00815 | 1422 ft | 3 kts | 153° |
| 2026-05-04 17:52 | 47.78230 | 13.00836 | 1421 ft | 4 kts | 143° |
| 2026-05-04 17:53 | 47.78212 | 13.00861 | 1423 ft | 2 kts | 135° |
| 2026-05-04 17:53 | 47.78208 | 13.00867 | 1420 ft | 1 kts | 134° |
| 2026-05-04 17:53 | 47.78204 | 13.00873 | 1420 ft | 1 kts | 134° |
| 2026-05-04 17:53 | 47.78203 | 13.00873 | 1420 ft | 0 kts | 134° |
| 2026-05-04 17:54 | 47.78201 | 13.00877 | 1420 ft | 1 kts | 131° |
| 2026-05-04 17:54 | 47.78186 | 13.00928 | 1420 ft | 10 kts | 104° |
| 2026-05-04 17:55 | 47.78199 | 13.01028 | 1419 ft | 11 kts | 64° |
| 2026-05-04 17:55 | 47.78245 | 13.01074 | 1419 ft | 8 kts | 350° |
| 2026-05-04 17:55 | 47.78328 | 13.01026 | 1421 ft | 29 kts | 338° |
| 2026-05-04 17:55 | 47.78769 | 13.00751 | 1421 ft | 106 kts | 337° |
| 2026-05-04 17:56 | 47.79629 | 13.00211 | 1523 ft | 151 kts | 338° |
| 2026-05-04 17:56 | 47.80589 | 12.99677 | 2203 ft | 145 kts | 342° |
| 2026-05-04 17:56 | 47.81593 | 12.99358 | 2686 ft | 162 kts | 360° |
| 2026-05-04 17:56 | 47.82774 | 12.99666 | 3087 ft | 182 kts | 20° |
| 2026-05-04 17:57 | 47.83928 | 13.00604 | 3586 ft | 196 kts | 34° |
| 2026-05-04 17:57 | 47.85103 | 13.01808 | 4046 ft | 215 kts | 35° |
| 2026-05-04 17:57 | 47.86404 | 13.03132 | 4467 ft | 238 kts | 35° |
| 2026-05-04 17:57 | 47.87861 | 13.04563 | 4972 ft | 264 kts | 28° |
| 2026-05-04 17:58 | 47.89691 | 13.05222 | 5670 ft | 280 kts | 360° |
| 2026-05-04 17:58 | 47.91612 | 13.04900 | 6263 ft | 284 kts | 351° |
| 2026-05-04 17:58 | 47.93576 | 13.04549 | 7318 ft | 285 kts | 352° |
| 2026-05-04 17:58 | 47.95566 | 13.04230 | 8331 ft | 289 kts | 352° |
| 2026-05-04 17:59 | 47.97589 | 13.03923 | 9312 ft | 295 kts | 352° |
| 2026-05-04 17:59 | 47.99649 | 13.03613 | 10226 ft | 301 kts | 352° |
| 2026-05-04 17:59 | 48.04161 | 13.02902 | 11064 ft | 347 kts | 352° |
| 2026-05-04 18:00 | 48.06603 | 13.02508 | 11772 ft | 357 kts | 352° |
| 2026-05-04 18:00 | 48.09093 | 13.02104 | 12584 ft | 363 kts | 352° |
| 2026-05-04 18:00 | 48.11587 | 13.01698 | 13393 ft | 368 kts | 352° |
| 2026-05-04 18:00 | 48.14161 | 13.01281 | 14167 ft | 373 kts | 352° |
| 2026-05-04 18:01 | 48.16762 | 13.00862 | 14923 ft | 377 kts | 352° |
| 2026-05-04 18:01 | 48.19399 | 13.00437 | 15674 ft | 381 kts | 352° |
| 2026-05-04 18:01 | 48.22024 | 13.00014 | 16423 ft | 385 kts | 352° |
| 2026-05-04 18:02 | 48.27413 | 12.99131 | 17907 ft | 393 kts | 352° |
| 2026-05-04 18:02 | 48.30152 | 12.98675 | 18587 ft | 397 kts | 352° |
| 2026-05-04 18:02 | 48.32913 | 12.98219 | 19248 ft | 400 kts | 351° |
| 2026-05-04 18:02 | 48.35689 | 12.97765 | 19925 ft | 402 kts | 351° |
| 2026-05-04 18:03 | 48.38486 | 12.97311 | 20606 ft | 405 kts | 352° |
| 2026-05-04 18:03 | 48.41309 | 12.96851 | 21288 ft | 407 kts | 351° |
| 2026-05-04 18:03 | 48.44095 | 12.96395 | 21943 ft | 410 kts | 352° |
| 2026-05-04 18:03 | 48.46933 | 12.95855 | 22569 ft | 411 kts | 346° |
| 2026-05-04 18:04 | 48.49660 | 12.94578 | 23186 ft | 410 kts | 333° |
| 2026-05-04 18:04 | 48.52087 | 12.92327 | 23730 ft | 409 kts | 318° |
| 2026-05-04 18:04 | 48.55183 | 12.85362 | 24686 ft | 407 kts | 285° |
| 2026-05-04 18:05 | 48.55960 | 12.81239 | 25152 ft | 409 kts | 284° |
| 2026-05-04 18:05 | 48.56729 | 12.77091 | 25613 ft | 412 kts | 284° |
| 2026-05-04 18:05 | 48.57508 | 12.72900 | 26081 ft | 415 kts | 284° |
| 2026-05-04 18:05 | 48.58286 | 12.68697 | 26545 ft | 417 kts | 284° |
| 2026-05-04 18:06 | 48.59859 | 12.60182 | 27478 ft | 422 kts | 283° |
| 2026-05-04 18:06 | 48.60646 | 12.55896 | 27917 ft | 425 kts | 283° |
| 2026-05-04 18:06 | 48.61443 | 12.51572 | 28357 ft | 428 kts | 283° |
| 2026-05-04 18:07 | 48.62236 | 12.47270 | 28773 ft | 431 kts | 283° |
| 2026-05-04 18:07 | 48.63042 | 12.42875 | 29186 ft | 434 kts | 283° |
| 2026-05-04 18:07 | 48.63852 | 12.38459 | 29595 ft | 436 kts | 283° |
| 2026-05-04 18:07 | 48.64654 | 12.34077 | 29886 ft | 439 kts | 283° |
| 2026-05-04 18:08 | 48.66249 | 12.25328 | 29938 ft | 427 kts | 283° |
| 2026-05-04 18:08 | 48.67814 | 12.16672 | 29937 ft | 425 kts | 283° |
| 2026-05-04 18:09 | 48.69720 | 12.08200 | 29944 ft | 428 kts | 294° |
| 2026-05-04 18:09 | 48.72367 | 12.00123 | 29941 ft | 428 kts | 294° |
| 2026-05-04 18:10 | 48.75007 | 11.92092 | 29945 ft | 428 kts | 294° |
| 2026-05-04 18:10 | 48.77652 | 11.84008 | 29933 ft | 427 kts | 294° |
| 2026-05-04 18:11 | 48.80279 | 11.75915 | 29922 ft | 427 kts | 294° |
| 2026-05-04 18:11 | 48.82892 | 11.67827 | 29915 ft | 426 kts | 294° |
| 2026-05-04 18:12 | 48.85508 | 11.59734 | 29917 ft | 426 kts | 294° |
| 2026-05-04 18:12 | 48.88114 | 11.51682 | 29922 ft | 426 kts | 294° |
| 2026-05-04 18:13 | 48.90716 | 11.43588 | 29923 ft | 425 kts | 294° |
| 2026-05-04 18:14 | 48.94585 | 11.31485 | 29947 ft | 425 kts | 293° |
| 2026-05-04 18:14 | 48.97170 | 11.23363 | 29954 ft | 425 kts | 293° |
| 2026-05-04 18:15 | 49.02301 | 11.07200 | 29966 ft | 424 kts | 293° |
| 2026-05-04 18:16 | 49.04836 | 10.99151 | 29962 ft | 423 kts | 292° |
| 2026-05-04 18:16 | 49.06107 | 10.95088 | 29548 ft | 424 kts | 292° |
| 2026-05-04 18:16 | 49.07481 | 10.91099 | 29118 ft | 427 kts | 299° |
| 2026-05-04 18:17 | 49.11409 | 10.84208 | 28238 ft | 436 kts | 314° |
| 2026-05-04 18:17 | 49.13647 | 10.81064 | 27815 ft | 437 kts | 314° |
| 2026-05-04 18:17 | 49.18094 | 10.74777 | 26985 ft | 436 kts | 314° |
| 2026-05-04 18:18 | 49.20310 | 10.71606 | 26584 ft | 433 kts | 313° |
| 2026-05-04 18:18 | 49.22454 | 10.68381 | 26325 ft | 432 kts | 311° |
| 2026-05-04 18:18 | 49.24549 | 10.65085 | 26076 ft | 430 kts | 310° |
| 2026-05-04 18:18 | 49.26609 | 10.61765 | 25830 ft | 429 kts | 310° |
| 2026-05-04 18:19 | 49.30682 | 10.55175 | 25346 ft | 427 kts | 310° |
| 2026-05-04 18:19 | 49.32738 | 10.51882 | 24952 ft | 425 kts | 310° |
| 2026-05-04 18:19 | 49.34780 | 10.48641 | 24419 ft | 419 kts | 311° |
| 2026-05-04 18:20 | 49.36679 | 10.45284 | 23764 ft | 413 kts | 303° |
| 2026-05-04 18:20 | 49.38333 | 10.41671 | 23360 ft | 413 kts | 302° |
| 2026-05-04 18:20 | 49.39968 | 10.38093 | 22928 ft | 412 kts | 302° |
| 2026-05-04 18:20 | 49.41615 | 10.34495 | 22513 ft | 410 kts | 302° |
| 2026-05-04 18:21 | 49.43250 | 10.30924 | 22099 ft | 407 kts | 302° |
| 2026-05-04 18:21 | 49.44873 | 10.27363 | 21683 ft | 405 kts | 302° |
| 2026-05-04 18:21 | 49.46485 | 10.23830 | 21278 ft | 402 kts | 302° |
| 2026-05-04 18:21 | 49.48087 | 10.20311 | 20870 ft | 400 kts | 302° |
| 2026-05-04 18:22 | 49.49660 | 10.16847 | 20469 ft | 398 kts | 302° |
| 2026-05-04 18:22 | 49.51233 | 10.13368 | 20071 ft | 394 kts | 302° |
| 2026-05-04 18:22 | 49.52772 | 10.09967 | 19943 ft | 380 kts | 302° |
| 2026-05-04 18:22 | 49.54254 | 10.06691 | 19815 ft | 366 kts | 302° |
| 2026-05-04 18:23 | 49.55692 | 10.03503 | 19497 ft | 358 kts | 302° |
| 2026-05-04 18:23 | 49.57106 | 10.00365 | 19074 ft | 355 kts | 302° |
| 2026-05-04 18:23 | 49.58504 | 9.97258 | 18641 ft | 352 kts | 302° |
| 2026-05-04 18:23 | 49.59897 | 9.94159 | 18197 ft | 350 kts | 302° |
| 2026-05-04 18:24 | 49.61298 | 9.91106 | 17804 ft | 348 kts | 304° |
| 2026-05-04 18:24 | 49.62793 | 9.88147 | 17536 ft | 349 kts | 306° |
| 2026-05-04 18:24 | 49.64335 | 9.85268 | 17275 ft | 348 kts | 307° |
| 2026-05-04 18:24 | 49.65902 | 9.82408 | 16899 ft | 347 kts | 307° |
| 2026-05-04 18:25 | 49.67431 | 9.79610 | 16494 ft | 344 kts | 307° |
| 2026-05-04 18:25 | 49.68973 | 9.76768 | 16088 ft | 342 kts | 307° |
| 2026-05-04 18:25 | 49.70491 | 9.73943 | 15686 ft | 340 kts | 307° |
| 2026-05-04 18:25 | 49.71993 | 9.71121 | 15292 ft | 338 kts | 306° |
| 2026-05-04 18:26 | 49.73459 | 9.68349 | 14903 ft | 336 kts | 306° |
| 2026-05-04 18:26 | 49.74936 | 9.65554 | 14520 ft | 334 kts | 306° |
| 2026-05-04 18:26 | 49.76400 | 9.62779 | 14143 ft | 332 kts | 306° |
| 2026-05-04 18:26 | 49.77854 | 9.60024 | 13762 ft | 330 kts | 306° |
| 2026-05-04 18:27 | 49.79308 | 9.57272 | 13338 ft | 328 kts | 306° |
| 2026-05-04 18:27 | 49.80744 | 9.54545 | 12914 ft | 326 kts | 306° |
| 2026-05-04 18:27 | 49.82149 | 9.51874 | 12510 ft | 324 kts | 306° |
| 2026-05-04 18:27 | 49.83574 | 9.49162 | 12096 ft | 323 kts | 306° |
| 2026-05-04 18:28 | 49.84972 | 9.46499 | 11694 ft | 321 kts | 306° |
| 2026-05-04 18:28 | 49.86378 | 9.43815 | 11293 ft | 319 kts | 306° |
| 2026-05-04 18:28 | 49.87779 | 9.41135 | 10899 ft | 317 kts | 306° |
| 2026-05-04 18:28 | 49.89160 | 9.38493 | 10511 ft | 315 kts | 306° |
| 2026-05-04 18:29 | 49.90542 | 9.35849 | 10120 ft | 314 kts | 306° |
| 2026-05-04 18:29 | 49.91897 | 9.33254 | 9729 ft | 312 kts | 306° |
| 2026-05-04 18:29 | 49.93262 | 9.30638 | 9305 ft | 310 kts | 306° |
| 2026-05-04 18:29 | 49.94611 | 9.28059 | 8929 ft | 304 kts | 306° |
| 2026-05-04 18:30 | 49.96789 | 9.23886 | 8380 ft | 294 kts | 306° |
| 2026-05-04 18:30 | 49.98063 | 9.21434 | 8046 ft | 288 kts | 306° |
| 2026-05-04 18:30 | 49.99313 | 9.19024 | 7730 ft | 285 kts | 306° |
| 2026-05-04 18:31 | 50.00551 | 9.16634 | 7400 ft | 283 kts | 306° |
| 2026-05-04 18:31 | 50.01784 | 9.14247 | 7075 ft | 282 kts | 306° |
| 2026-05-04 18:31 | 50.03014 | 9.11869 | 6756 ft | 281 kts | 306° |
| 2026-05-04 18:31 | 50.04222 | 9.09535 | 6447 ft | 280 kts | 307° |
| 2026-05-04 18:32 | 50.05434 | 9.07196 | 6116 ft | 274 kts | 307° |
| 2026-05-04 18:32 | 50.06622 | 9.04902 | 5781 ft | 269 kts | 307° |
| 2026-05-04 18:32 | 50.07781 | 9.02655 | 5448 ft | 264 kts | 307° |
| 2026-05-04 18:32 | 50.08924 | 9.00435 | 5146 ft | 258 kts | 307° |
| 2026-05-04 18:33 | 50.10035 | 8.98276 | 4898 ft | 251 kts | 306° |
| 2026-05-04 18:33 | 50.10784 | 8.95895 | 4645 ft | 242 kts | 287° |
| 2026-05-04 18:33 | 50.11264 | 8.93434 | 4397 ft | 238 kts | 285° |
| 2026-05-04 18:33 | 50.11477 | 8.90907 | 4141 ft | 234 kts | 264° |
| 2026-05-04 18:34 | 50.11061 | 8.88490 | 4009 ft | 228 kts | 249° |
| 2026-05-04 18:34 | 50.10530 | 8.86243 | 3967 ft | 214 kts | 249° |
| 2026-05-04 18:34 | 50.10023 | 8.84087 | 3760 ft | 210 kts | 249° |
| 2026-05-04 18:34 | 50.09520 | 8.81947 | 3493 ft | 209 kts | 250° |
| 2026-05-04 18:35 | 50.09018 | 8.79820 | 3224 ft | 209 kts | 250° |
| 2026-05-04 18:35 | 50.08517 | 8.77694 | 2946 ft | 209 kts | 250° |
| 2026-05-04 18:35 | 50.08015 | 8.75570 | 2666 ft | 209 kts | 250° |
| 2026-05-04 18:35 | 50.07526 | 8.73504 | 2408 ft | 201 kts | 251° |
| 2026-05-04 18:36 | 50.07185 | 8.71472 | 2181 ft | 190 kts | 262° |
| 2026-05-04 18:36 | 50.07048 | 8.69457 | 2067 ft | 183 kts | 265° |
| 2026-05-04 18:36 | 50.06749 | 8.67628 | 1863 ft | 172 kts | 249° |
| 2026-05-04 18:36 | 50.06238 | 8.65999 | 1529 ft | 157 kts | 245° |
| 2026-05-04 18:37 | 50.05862 | 8.64518 | 1293 ft | 142 kts | 252° |
| 2026-05-04 18:37 | 50.05547 | 8.63098 | 1039 ft | 133 kts | 253° |
| 2026-05-04 18:37 | 50.05245 | 8.61790 | 817 ft | 127 kts | 252° |
| 2026-05-04 18:37 | 50.04928 | 8.60506 | 639 ft | 126 kts | 252° |
| 2026-05-04 18:38 | 50.04630 | 8.59228 | 480 ft | 126 kts | 253° |
| 2026-05-04 18:38 | 50.04337 | 8.57972 | 370 ft | 114 kts | 250° |
| 2026-05-04 18:38 | 50.04115 | 8.57028 | 365 ft | 68 kts | 250° |
| 2026-05-04 18:38 | 50.03995 | 8.56521 | 359 ft | 39 kts | 255° |
| 2026-05-04 18:39 | 50.04007 | 8.56240 | 351 ft | 8 kts | 279° |
| 2026-05-04 18:39 | 50.04011 | 8.56200 | 359 ft | 0 kts | 279° |
| 2026-05-04 18:39 | 50.04012 | 8.56197 | 358 ft | 1 kts | 279° |
| 2026-05-04 18:40 | 50.04014 | 8.56180 | 355 ft | 0 kts | 279° |
| 2026-05-04 18:40 | 50.04016 | 8.56167 | 354 ft | 2 kts | 288° |
| 2026-05-04 18:40 | 50.04029 | 8.56147 | 357 ft | 3 kts | 330° |
| 2026-05-04 18:40 | 50.04046 | 8.56142 | 351 ft | 2 kts | 0° |
| 2026-05-04 18:41 | 50.04059 | 8.56139 | 353 ft | 3 kts | 354° |
| 2026-05-04 18:41 | 50.04096 | 8.56158 | 354 ft | 9 kts | 42° |
| 2026-05-04 18:41 | 50.04122 | 8.56255 | 353 ft | 10 kts | 65° |
| 2026-05-04 18:41 | 50.04179 | 8.56276 | 354 ft | 9 kts | 345° |
| 2026-05-04 18:42 | 50.04238 | 8.56241 | 357 ft | 10 kts | 340° |
| 2026-05-04 18:42 | 50.04287 | 8.56177 | 356 ft | 10 kts | 281° |
| 2026-05-04 18:42 | 50.04308 | 8.56079 | 360 ft | 10 kts | 316° |
| 2026-05-04 18:42 | 50.04372 | 8.56038 | 356 ft | 10 kts | 339° |
| 2026-05-04 18:43 | 50.04436 | 8.56056 | 358 ft | 10 kts | 55° |
| 2026-05-04 18:43 | 50.04465 | 8.56171 | 358 ft | 12 kts | 70° |
| 2026-05-04 18:43 | 50.04479 | 8.56258 | 356 ft | 3 kts | 96° |
| 2026-05-04 18:43 | 50.04471 | 8.56262 | 356 ft | 2 kts | 186° |
| 2026-05-04 18:44 | 50.04433 | 8.56267 | 360 ft | 4 kts | 164° |
| 2026-05-04 18:44 | 50.04428 | 8.56270 | 362 ft | 2 kts | 162° |
| 2026-05-04 18:44 | 50.04416 | 8.56275 | 358 ft | 0 kts | 162° |